TimeMST,TemperatureF,Dew PointF,Humidity,Sea Level PressureIn,VisibilityMPH,Wind Direction,Wind SpeedMPH,Gust SpeedMPH,PrecipitationIn,Events,Conditions,WindDirDegrees,DateUTC
12:15 AM,14.9,13.1,93,29.74,7.0,NE,13.8,-,N/A,,Overcast,50,2013-02-21 07:15:00
12:35 AM,15.3,12.9,90,29.74,5.0,NE,15.0,-,N/A,,Overcast,50,2013-02-21 07:35:00
12:55 AM,15.1,12.7,90,29.74,2.5,NE,13.8,-,N/A,,Overcast,40,2013-02-21 07:55:00
1:15 AM,14.9,12.7,91,29.74,2.0,NE,13.8,-,N/A,,Overcast,50,2013-02-21 08:15:00
1:35 AM,14.9,12.7,91,29.73,4.0,NE,16.1,-,N/A,,Overcast,40,2013-02-21 08:35:00
1:55 AM,14.7,12.2,90,29.72,7.0,NNE,13.8,-,N/A,,Overcast,30,2013-02-21 08:55:00
2:15 AM,14.7,12.2,90,29.72,5.0,NNE,12.7,-,N/A,,Overcast,30,2013-02-21 09:15:00
2:35 AM,14.7,12.2,90,29.72,4.0,NNE,12.7,-,N/A,,Overcast,30,2013-02-21 09:35:00
2:55 AM,14.5,12.0,90,29.72,4.0,NNE,11.5,-,N/A,,Overcast,20,2013-02-21 09:55:00
3:15 AM,14.5,12.2,90,29.74,4.0,NNE,10.4,-,N/A,,Overcast,20,2013-02-21 10:15:00
3:35 AM,14.7,12.2,90,29.74,4.0,NNE,10.4,-,N/A,,Overcast,30,2013-02-21 10:35:00
3:55 AM,14.7,12.2,90,29.74,5.0,NNE,10.4,-,N/A,,Overcast,20,2013-02-21 10:55:00
4:15 AM,14.7,12.2,90,29.74,4.0,North,12.7,-,N/A,,Overcast,10,2013-02-21 11:15:00
5:15 AM,14.2,11.8,90,29.76,3.0,North,11.5,-,N/A,,Overcast,10,2013-02-21 12:15:00
5:35 AM,14.2,11.8,90,29.77,5.0,NNE,11.5,-,N/A,,Overcast,20,2013-02-21 12:35:00
5:55 AM,14.0,11.7,90,29.77,2.5,North,11.5,-,N/A,,Overcast,10,2013-02-21 12:55:00
6:15 AM,13.8,11.3,90,29.77,1.8,North,10.4,-,N/A,,Overcast,10,2013-02-21 13:15:00
6:35 AM,13.5,11.1,90,29.77,4.0,NNE,10.4,-,N/A,,Overcast,20,2013-02-21 13:35:00
6:55 AM,13.1,10.8,90,29.79,2.5,North,8.1,-,N/A,,Overcast,10,2013-02-21 13:55:00
7:15 AM,13.1,10.4,89,29.79,7.0,North,9.2,-,N/A,,Overcast,360,2013-02-21 14:15:00
7:35 AM,13.5,10.4,88,29.80,3.0,North,9.2,-,N/A,,Overcast,360,2013-02-21 14:35:00
7:55 AM,14.0,11.1,88,29.82,4.0,NNE,9.2,-,N/A,,Overcast,20,2013-02-21 14:55:00
8:15 AM,15.1,12.0,88,29.82,7.0,NNE,8.1,-,N/A,,Overcast,30,2013-02-21 15:15:00
8:35 AM,15.8,12.2,86,29.82,10.0,NNE,8.1,-,N/A,,Overcast,20,2013-02-21 15:35:00
8:55 AM,16.2,12.2,84,29.82,10.0,North,8.1,-,N/A,,Overcast,10,2013-02-21 15:55:00
9:15 AM,16.7,13.1,86,29.83,5.0,North,8.1,-,N/A,,Overcast,10,2013-02-21 16:15:00
9:35 AM,18.0,13.3,82,29.83,5.0,North,8.1,-,N/A,,Overcast,10,2013-02-21 16:35:00
9:55 AM,18.7,13.8,81,29.83,2.0,NNE,6.9,-,N/A,,Overcast,20,2013-02-21 16:55:00
10:15 AM,19.0,13.8,80,29.83,2.0,North,6.9,-,N/A,,Overcast,10,2013-02-21 17:15:00
10:35 AM,19.2,13.8,80,29.82,3.0,North,6.9,-,N/A,,Overcast,360,2013-02-21 17:35:00
10:55 AM,18.5,12.9,79,29.82,7.0,North,6.9,-,N/A,,Overcast,360,2013-02-21 17:55:00
11:15 AM,19.8,13.6,77,29.82,10.0,North,6.9,-,N/A,,Scattered Clouds,350,2013-02-21 18:15:00
11:35 AM,20.5,13.6,75,29.81,5.0,North,8.1,-,N/A,,Clear,350,2013-02-21 18:35:00
11:55 AM,20.3,13.8,76,29.81,5.0,North,6.9,-,N/A,,Clear,350,2013-02-21 18:55:00
12:15 PM,20.8,13.8,74,29.80,4.0,NNW,5.8,-,N/A,,Mostly Cloudy,340,2013-02-21 19:15:00
12:35 PM,20.7,13.3,73,29.79,7.0,NNW,6.9,-,N/A,,Overcast,330,2013-02-21 19:35:00
12:55 PM,21.4,14.2,74,29.79,7.0,NNW,6.9,-,N/A,,Overcast,340,2013-02-21 19:55:00
1:15 PM,23.2,14.5,70,29.78,10.0,NNW,8.1,-,N/A,,Overcast,340,2013-02-21 20:15:00
1:35 PM,23.9,14.5,67,29.78,10.0,North,9.2,-,N/A,,Overcast,360,2013-02-21 20:35:00
1:55 PM,23.4,15.3,71,29.78,10.0,North,9.2,-,N/A,,Overcast,10,2013-02-21 20:55:00
2:15 PM,23.0,15.3,72,29.78,10.0,North,10.4,-,N/A,,Overcast,360,2013-02-21 21:15:00
2:35 PM,23.5,15.6,72,29.79,10.0,North,10.4,-,N/A,,Overcast,10,2013-02-21 21:35:00
2:55 PM,23.7,16.0,72,29.79,10.0,NNE,9.2,-,N/A,,Overcast,20,2013-02-21 21:55:00
3:15 PM,23.4,16.2,74,29.79,10.0,North,11.5,-,N/A,,Overcast,10,2013-02-21 22:15:00
3:35 PM,22.8,16.3,76,29.79,10.0,North,10.4,-,N/A,,Overcast,10,2013-02-21 22:35:00
3:55 PM,22.6,15.8,75,29.81,10.0,North,13.8,-,N/A,,Overcast,10,2013-02-21 22:55:00
4:15 PM,22.1,15.6,76,29.81,10.0,North,13.8,-,N/A,,Overcast,10,2013-02-21 23:15:00
4:35 PM,21.6,16.9,82,29.81,1.0,North,9.2,-,N/A,,Overcast,10,2013-02-21 23:35:00
4:55 PM,21.7,16.5,80,29.81,2.5,North,11.5,-,N/A,,Overcast,360,2013-02-21 23:55:00
5:15 PM,20.8,16.7,84,29.82,7.0,North,10.4,-,N/A,,Overcast,360,2013-02-22 00:15:00
5:35 PM,19.4,16.0,87,29.82,10.0,North,10.4,-,N/A,,Scattered Clouds,360,2013-02-22 00:35:00
5:55 PM,18.9,15.8,88,29.83,10.0,North,10.4,-,N/A,,Scattered Clouds,10,2013-02-22 00:55:00
6:15 PM,18.3,15.6,89,29.83,10.0,NNE,9.2,-,N/A,,Mostly Cloudy,20,2013-02-22 01:15:00
6:35 PM,18.3,15.6,89,29.84,10.0,North,4.6,-,N/A,,Overcast,10,2013-02-22 01:35:00
6:55 PM,18.5,16.0,90,29.85,10.0,Calm,Calm,-,N/A,,Overcast,0,2013-02-22 01:55:00
7:15 PM,18.3,15.8,90,29.86,7.0,Calm,Calm,-,N/A,,Overcast,0,2013-02-22 02:15:00
7:35 PM,18.1,15.6,90,29.86,7.0,Calm,Calm,-,N/A,,Overcast,0,2013-02-22 02:35:00
7:55 PM,17.8,15.4,91,29.87,4.0,Calm,Calm,-,N/A,,Overcast,0,2013-02-22 02:55:00
8:15 PM,18.1,16.2,92,29.87,2.0,Calm,Calm,-,N/A,,Overcast,0,2013-02-22 03:15:00
8:35 PM,18.5,16.7,93,29.87,2.5,West,3.5,-,N/A,,Overcast,260,2013-02-22 03:35:00
8:55 PM,16.7,14.9,93,29.88,7.0,WSW,9.2,-,N/A,,Scattered Clouds,240,2013-02-22 03:55:00
9:15 PM,16.3,14.7,93,29.88,10.0,West,4.6,-,N/A,,Mostly Cloudy,260,2013-02-22 04:15:00
9:35 PM,16.7,15.4,95,29.87,10.0,West,3.5,-,N/A,,Overcast,260,2013-02-22 04:35:00
9:55 PM,15.6,14.2,94,29.86,10.0,West,5.8,-,N/A,,Scattered Clouds,260,2013-02-22 04:55:00
10:15 PM,13.3,11.5,93,29.86,7.0,WNW,4.6,-,N/A,,Clear,290,2013-02-22 05:15:00
10:35 PM,14.0,12.9,95,29.85,7.0,West,5.8,-,N/A,,Clear,270,2013-02-22 05:35:00
10:55 PM,14.5,13.1,94,29.86,7.0,West,3.5,-,N/A,,Scattered Clouds,280,2013-02-22 05:55:00
11:15 PM,14.5,13.1,94,29.86,5.0,West,6.9,-,N/A,,Mostly Cloudy,270,2013-02-22 06:15:00
11:55 PM,12.4,10.8,93,29.86,5.0,West,4.6,-,N/A,,Mostly Cloudy,270,2013-02-22 06:55:00